createdAt,value
2023-03-08T00:02:25.213Z,8.70
2023-03-08T00:07:28.211Z,7.82
2023-03-08T00:12:30.860Z,11.60
2023-03-08T00:17:37.016Z,11.10
2023-03-08T00:22:40.981Z,10.17
2023-03-08T00:27:43.713Z,10.40
2023-03-08T00:32:46.406Z,8.30
2023-03-08T00:37:49.077Z,9.20
2023-03-08T00:42:52.646Z,10.45
2023-03-08T00:47:55.242Z,10.37
2023-03-08T00:52:57.960Z,10.85
2023-03-08T00:58:00.810Z,11.40
2023-03-08T01:03:04.661Z,4.20
2023-03-08T01:08:07.381Z,9.70
2023-03-08T01:13:10.126Z,12.77
2023-03-08T01:18:13.519Z,12.60
2023-03-08T01:23:16.157Z,14.23
2023-03-08T01:28:19.886Z,18.92
2023-03-08T01:33:22.930Z,19.13
2023-03-08T01:38:25.989Z,12.87
2023-03-08T01:43:34.177Z,12.90
2023-03-08T01:48:51.666Z,14.85
2023-03-08T01:53:56.335Z,10.73
2023-03-08T01:59:00.826Z,13.95
2023-03-08T02:04:04.450Z,13.70
2023-03-08T02:09:08.686Z,13.80
2023-03-08T02:14:11.446Z,14.35
2023-03-08T02:19:25.283Z,9.88
2023-03-08T02:24:28.003Z,13.30
2023-03-08T02:29:30.682Z,11.47
2023-03-08T02:34:33.328Z,11.57
2023-03-08T02:39:35.967Z,8.57
2023-03-08T02:44:38.640Z,12.90
2023-03-08T02:49:41.387Z,9.48
2023-03-08T02:54:45.802Z,11.63
2023-03-08T02:59:48.558Z,9.63
2023-03-08T03:04:52.278Z,11.75
2023-03-08T03:09:55.116Z,9.15
2023-03-08T03:14:58.038Z,8.93
2023-03-08T03:20:00.922Z,14.93
2023-03-08T03:25:04.592Z,9.18
2023-03-08T03:30:09.654Z,10.88
2023-03-08T03:35:12.779Z,9.10
2023-03-08T03:40:16.210Z,10.98
2023-03-08T03:45:22.276Z,11.10
2023-03-08T03:50:25.478Z,10.70
2023-03-08T03:55:33.708Z,8.48
2023-03-08T04:00:38.931Z,10.80
2023-03-08T04:05:52.101Z,10.25
2023-03-08T04:10:59.759Z,6.40
2023-03-08T04:16:12.983Z,11.55
2023-03-08T04:21:16.181Z,5.93
2023-03-08T04:26:19.410Z,6.80
2023-03-08T04:31:25.249Z,4.95
2023-03-08T04:36:28.104Z,7.13
2023-03-08T04:41:34.261Z,8.07
2023-03-08T04:46:54.497Z,7.93
2023-03-08T04:52:04.590Z,7.63
2023-03-08T04:57:09.698Z,6.28
2023-03-08T05:02:13.884Z,7.43
2023-03-08T05:07:16.876Z,8.82
2023-03-08T05:12:20.888Z,7.25
2023-03-08T05:17:30.969Z,10.00
2023-03-08T05:22:45.001Z,5.35
2023-03-08T05:27:54.960Z,5.80
2023-03-08T05:32:58.798Z,5.10
2023-03-08T05:38:01.771Z,8.90
2023-03-08T05:43:04.508Z,6.03
2023-03-08T05:48:07.825Z,6.88
2023-03-08T05:53:12.284Z,5.93
2023-03-08T05:58:16.122Z,8.50
2023-03-08T06:03:19.377Z,5.53
2023-03-08T06:08:22.219Z,9.10
2023-03-08T06:13:25.820Z,4.88
2023-03-08T06:18:29.377Z,6.20
2023-03-08T06:23:33.340Z,6.88
2023-03-08T06:28:37.337Z,6.63
2023-03-08T06:33:40.453Z,8.13
2023-03-08T06:38:47.381Z,10.02
2023-03-08T06:43:50.237Z,7.90
2023-03-08T06:48:54.339Z,9.02
2023-03-08T06:53:57.137Z,9.02
2023-03-08T06:59:03.895Z,7.43
2023-03-08T07:04:07.268Z,8.70
2023-03-08T07:09:10.351Z,6.20
2023-03-08T07:14:13.133Z,8.63
2023-03-08T07:19:15.807Z,5.22
2023-03-08T07:24:18.481Z,6.50
2023-03-08T07:29:21.194Z,9.73
2023-03-08T07:34:23.943Z,7.50
2023-03-08T07:39:26.726Z,6.18
2023-03-08T07:44:29.545Z,9.73
2023-03-08T07:49:32.275Z,7.65
2023-03-08T07:54:35.258Z,7.25
2023-03-08T07:59:38.088Z,8.17
2023-03-08T08:04:41.504Z,8.25
2023-03-08T08:09:44.578Z,12.82
2023-03-08T08:14:47.868Z,8.35
2023-03-08T08:19:50.897Z,9.02
2023-03-08T08:24:53.594Z,7.10
2023-03-08T08:29:56.510Z,7.72
2023-03-08T08:35:00.349Z,10.00
2023-03-08T08:40:04.262Z,10.60
2023-03-08T08:45:07.795Z,13.60
2023-03-08T08:50:13.897Z,8.00
2023-03-08T08:55:16.930Z,8.93
2023-03-08T09:00:20.276Z,7.55
2023-03-08T09:05:23.113Z,8.93
2023-03-08T09:10:30.199Z,9.85
2023-03-08T09:15:32.981Z,8.97
2023-03-08T09:20:35.609Z,7.95
2023-03-08T09:25:38.384Z,10.02
2023-03-08T09:30:41.040Z,6.05
2023-03-08T09:35:43.824Z,8.50
2023-03-08T09:41:00.519Z,11.33
2023-03-08T09:46:05.375Z,9.10
2023-03-08T09:51:14.219Z,9.23
2023-03-08T09:56:33.785Z,7.60
2023-03-08T10:01:48.902Z,7.65
2023-03-08T10:07:12.738Z,9.53
2023-03-08T10:12:52.442Z,7.88
2023-03-08T10:18:06.084Z,9.50
2023-03-08T10:23:23.355Z,9.77
2023-03-08T10:28:29.873Z,6.85
2023-03-08T10:33:35.558Z,8.30
2023-03-08T10:38:39.178Z,7.60
2023-03-08T10:43:51.721Z,7.53
2023-03-08T10:48:54.778Z,8.77
2023-03-08T10:53:59.724Z,5.15
2023-03-08T10:59:04.764Z,8.87
2023-03-08T11:04:16.741Z,10.38
2023-03-08T11:09:24.380Z,9.68
2023-03-08T11:14:28.568Z,7.60
2023-03-08T11:19:37.108Z,6.45
2023-03-08T11:25:04.785Z,5.70
2023-03-08T11:30:07.469Z,8.40
2023-03-08T11:35:18.189Z,7.50
2023-03-08T11:40:29.268Z,10.25
2023-03-08T11:45:55.370Z,7.97
2023-03-08T11:51:14.830Z,7.73
2023-03-08T11:57:03.915Z,8.65
2023-03-08T12:02:12.194Z,8.05
2023-03-08T12:07:58.427Z,13.93
2023-03-08T12:13:06.888Z,6.65
2023-03-08T12:18:21.452Z,10.03
2023-03-08T12:24:03.789Z,9.80
2023-03-08T12:29:23.703Z,8.40
2023-03-08T12:34:38.854Z,7.88
2023-03-08T12:39:41.765Z,8.77
2023-03-08T12:44:44.937Z,7.67
2023-03-08T12:49:51.842Z,6.50
2023-03-08T12:54:57.399Z,9.13
2023-03-08T13:00:28.937Z,7.32
2023-03-08T13:05:36.810Z,8.80
2023-03-08T13:10:42.063Z,9.67
2023-03-08T13:15:44.964Z,7.50
2023-03-08T13:21:20.977Z,7.18
2023-03-08T13:27:06.935Z,7.25
2023-03-08T13:32:18.402Z,8.63
2023-03-08T13:37:26.150Z,8.27
2023-03-08T13:42:29.767Z,9.13
2023-03-08T13:47:36.138Z,10.13
2023-03-08T13:52:39.969Z,9.70
2023-03-08T13:57:42.973Z,6.75
2023-03-08T14:02:46.983Z,8.67
2023-03-08T14:07:58.344Z,6.82
2023-03-08T14:13:01.302Z,7.25
2023-03-08T14:18:05.068Z,9.13
2023-03-08T14:23:23.726Z,9.55
2023-03-08T14:28:41.829Z,10.53
2023-03-08T14:33:44.746Z,8.63
2023-03-08T14:38:49.483Z,9.73
2023-03-08T14:43:52.540Z,11.93
2023-03-08T14:49:00.337Z,9.10
2023-03-08T14:54:08.875Z,11.73
2023-03-08T14:59:21.655Z,9.77
2023-03-08T15:04:29.512Z,7.35
2023-03-08T15:09:32.589Z,3.25
2023-03-08T15:14:35.653Z,4.75
2023-03-08T15:19:38.423Z,6.23
2023-03-08T15:24:41.518Z,5.93
2023-03-08T15:29:44.282Z,3.00
2023-03-08T15:34:46.916Z,5.88
2023-03-08T15:39:49.789Z,4.75
2023-03-08T15:44:52.700Z,5.73
2023-03-08T15:49:55.540Z,8.10
2023-03-08T15:54:58.442Z,5.65
2023-03-08T16:00:01.173Z,7.80
2023-03-08T16:05:14.726Z,8.23
2023-03-08T16:10:17.690Z,7.10
2023-03-08T16:15:22.632Z,8.13
2023-03-08T16:20:26.177Z,6.70
2023-03-08T16:25:28.967Z,7.80
2023-03-08T16:30:32.603Z,9.73
2023-03-08T16:35:35.377Z,7.03
2023-03-08T16:40:38.609Z,6.32
2023-03-08T16:45:57.752Z,8.48
2023-03-08T16:51:00.554Z,8.85
2023-03-08T16:56:04.567Z,8.00
2023-03-08T17:01:14.592Z,8.80
2023-03-08T17:06:21.272Z,12.05
2023-03-08T17:11:29.633Z,7.93
2023-03-08T17:16:33.345Z,7.68
2023-03-08T17:21:38.640Z,10.75
2023-03-08T17:26:44.687Z,8.77
2023-03-08T17:31:47.669Z,15.07
2023-03-08T17:36:51.737Z,17.92
2023-03-08T17:41:54.436Z,14.23
2023-03-08T17:46:57.165Z,16.90
2023-03-08T17:51:59.855Z,16.97
2023-03-08T17:57:02.646Z,17.63
2023-03-08T18:02:05.606Z,14.85
2023-03-08T18:07:08.348Z,18.38
2023-03-08T18:12:11.952Z,16.60
2023-03-08T18:17:14.719Z,19.67
2023-03-08T18:22:18.221Z,13.90
2023-03-08T18:27:21.008Z,15.75
2023-03-08T18:32:24.611Z,20.13
2023-03-08T18:37:27.763Z,18.10
2023-03-08T18:42:30.495Z,16.70
2023-03-08T18:47:33.486Z,18.92
2023-03-08T18:52:36.643Z,20.98
2023-03-08T18:57:40.013Z,24.55
2023-03-08T19:02:43.718Z,19.75
2023-03-08T19:07:47.043Z,16.23
2023-03-08T19:12:50.292Z,19.17
2023-03-08T19:17:57.204Z,23.55
2023-03-08T19:23:00.113Z,20.20
2023-03-08T19:28:03.754Z,22.48
2023-03-08T19:33:06.694Z,21.47
2023-03-08T19:38:09.328Z,21.73
2023-03-08T19:43:12.397Z,22.60
2023-03-08T19:48:15.038Z,23.55
2023-03-08T19:53:17.789Z,18.90
2023-03-08T19:58:22.173Z,19.70
2023-03-08T20:03:24.851Z,19.20
2023-03-08T20:08:27.870Z,25.77
2023-03-08T20:13:31.462Z,23.15
2023-03-08T20:18:34.364Z,22.00
2023-03-08T20:23:37.397Z,17.47
2023-03-08T20:28:40.399Z,14.80
2023-03-08T20:33:43.327Z,13.88
2023-03-08T20:38:46.217Z,15.05
2023-03-08T20:43:52.973Z,14.95
2023-03-08T20:48:57.267Z,15.03
2023-03-08T20:54:00.091Z,19.83
2023-03-08T20:59:03.062Z,13.20
2023-03-08T21:04:06.779Z,10.43
2023-03-08T21:09:09.939Z,12.52
2023-03-08T21:14:13.068Z,17.07
2023-03-08T21:19:16.089Z,15.45
2023-03-08T21:24:21.536Z,15.75
2023-03-08T21:29:25.521Z,10.25
2023-03-08T21:34:28.403Z,10.25
2023-03-08T21:39:31.264Z,9.00
2023-03-08T21:44:33.969Z,13.00
2023-03-08T21:49:36.843Z,12.05
2023-03-08T21:54:39.609Z,8.85
2023-03-08T21:59:42.219Z,5.80
2023-03-08T22:04:44.913Z,4.17
2023-03-08T22:09:47.841Z,7.13
2023-03-08T22:14:50.702Z,10.48
2023-03-08T22:19:54.036Z,8.05
2023-03-08T22:24:57.109Z,10.23
2023-03-08T22:30:00.137Z,9.93
2023-03-08T22:35:03.094Z,7.30
2023-03-08T22:40:10.754Z,7.28
2023-03-08T22:45:14.124Z,10.10
2023-03-08T22:50:16.776Z,7.22
2023-03-08T22:55:19.833Z,9.07
2023-03-08T23:00:22.527Z,12.50
2023-03-08T23:05:25.339Z,6.80
2023-03-08T23:10:27.992Z,11.00
2023-03-08T23:16:13.624Z,8.40
2023-03-08T23:21:18.304Z,8.47
2023-03-08T23:26:24.828Z,8.75
2023-03-08T23:31:30.591Z,12.20
2023-03-08T23:36:34.364Z,9.10
2023-03-08T23:41:37.143Z,10.52
2023-03-08T23:46:40.432Z,9.60
2023-03-08T23:51:43.511Z,8.90
2023-03-08T23:56:46.197Z,9.63
